Time;durP1;ratioP1;P1;durP2;ratioP2;P2;SDS_P1;SDS_P2;PMS_P1;PMS_P2;Temp;Humidity;BMP_temperature;BMP_pressure;BME280_temperature;BME280_humidity;BME280_pressure;Samples;Min_cycle;Max_cycle;Signal;HPM_P1;HPM_P2
2024/01/17 00:01:59;;;;;;;3.00;2.80;;;14.40;59.70;;;;;;5004909;28;20054;-81
2024/01/17 00:04:25;;;;;;;2.65;2.45;;;14.40;59.60;;;;;;5015675;28;20033;-81
2024/01/17 00:06:51;;;;;;;2.67;2.47;;;14.40;59.90;;;;;;5015310;28;20435;-80
2024/01/17 00:09:18;;;;;;;2.47;2.28;;;14.40;59.60;;;;;;5022677;28;20048;-81
2024/01/17 00:11:44;;;;;;;2.70;2.60;;;14.40;59.60;;;;;;5021228;28;20034;-81
2024/01/17 00:14:09;;;;;;;2.50;2.30;;;14.40;59.90;;;;;;5023875;28;20041;-81
2024/01/17 00:16:35;;;;;;;2.70;2.50;;;14.40;59.60;;;;;;5007417;28;20044;-80
2024/01/17 00:19:00;;;;;;;2.45;2.25;;;14.40;59.70;;;;;;4989974;28;20530;-81
2024/01/17 00:21:27;;;;;;;2.35;2.25;;;14.40;59.60;;;;;;4990947;28;20042;-81
2024/01/17 00:23:52;;;;;;;2.30;2.20;;;14.40;59.60;;;;;;4998347;28;20033;-81
2024/01/17 00:26:18;;;;;;;4.45;2.50;;;14.40;60.20;;;;;;4992050;28;20065;-81
2024/01/17 00:28:43;;;;;;;2.55;2.35;;;14.40;59.70;;;;;;5013882;28;20033;-81
2024/01/17 00:31:09;;;;;;;2.53;2.33;;;14.40;59.50;;;;;;5018953;28;20506;-82
2024/01/17 00:33:35;;;;;;;2.53;2.30;;;14.40;59.50;;;;;;5006392;28;20442;-81
2024/01/17 00:36:01;;;;;;;2.35;2.22;;;14.40;59.40;;;;;;5021263;28;20040;-81
2024/01/17 00:38:26;;;;;;;2.50;2.40;;;14.40;59.50;;;;;;5023998;28;20034;-81
2024/01/17 00:40:52;;;;;;;2.67;2.47;;;14.40;59.50;;;;;;5023747;28;20045;-81
2024/01/17 00:43:17;;;;;;;2.10;2.00;;;14.40;59.50;;;;;;5022290;28;20083;-81
2024/01/17 00:45:43;;;;;;;3.92;2.05;;;14.40;59.50;;;;;;5004498;28;20122;-81
2024/01/17 00:48:09;;;;;;;2.50;2.30;;;14.40;59.50;;;;;;5002864;28;20033;-81
2024/01/17 00:50:34;;;;;;;2.30;2.20;;;14.40;59.50;;;;;;5002272;28;20100;-81
2024/01/17 00:53:00;;;;;;;2.30;2.20;;;14.40;59.50;;;;;;5012002;28;20049;-82
2024/01/17 00:55:26;;;;;;;2.20;2.10;;;14.30;59.40;;;;;;5006303;28;20041;-82
2024/01/17 00:57:51;;;;;;;1.80;1.70;;;14.40;59.50;;;;;;5056502;28;20048;-81
2024/01/17 01:00:17;;;;;;;1.88;1.77;;;14.30;59.40;;;;;;5000288;28;20088;-82
2024/01/17 01:02:43;;;;;;;2.20;2.10;;;14.30;59.60;;;;;;5021509;28;20046;-81
2024/01/17 01:05:11;;;;;;;2.00;1.90;;;14.30;59.60;;;;;;5019561;28;20447;-82
2024/01/17 01:07:36;;;;;;;1.75;1.65;;;14.30;59.60;;;;;;5019180;28;20045;-81
2024/01/17 01:10:02;;;;;;;2.10;2.00;;;14.30;59.40;;;;;;5023164;28;20503;-81
2024/01/17 01:12:28;;;;;;;1.83;1.73;;;14.30;59.40;;;;;;5024083;28;20120;-81
2024/01/17 01:14:53;;;;;;;1.88;1.75;;;14.30;59.40;;;;;;5012852;28;20052;-81
2024/01/17 01:17:19;;;;;;;2.38;2.17;;;14.30;59.60;;;;;;5020921;28;20069;-81
2024/01/17 01:19:45;;;;;;;1.98;1.88;;;14.30;59.50;;;;;;5006107;28;20044;-80
2024/01/17 01:22:10;;;;;;;2.10;2.00;;;14.30;59.40;;;;;;5012005;28;20565;-81
2024/01/17 01:24:37;;;;;;;1.70;1.60;;;14.30;60.10;;;;;;5015303;28;20087;-81
2024/01/17 01:27:02;;;;;;;1.90;1.80;;;14.30;59.50;;;;;;5024484;28;20117;-80
2024/01/17 01:29:28;;;;;;;1.90;1.80;;;14.30;59.40;;;;;;5005714;28;20044;-80
2024/01/17 01:31:54;;;;;;;1.80;1.70;;;14.20;59.40;;;;;;5054147;28;20049;-80
2024/01/17 01:34:19;;;;;;;2.00;1.83;;;14.30;59.40;;;;;;4990136;28;20042;-80
2024/01/17 01:36:45;;;;;;;2.03;1.92;;;14.30;59.50;;;;;;5014012;28;20061;-79
2024/01/17 01:39:10;;;;;;;1.80;1.70;;;14.30;59.40;;;;;;5011238;28;20049;-80
2024/01/17 01:41:36;;;;;;;1.67;1.58;;;14.30;59.50;;;;;;5019850;28;20311;-80
2024/01/17 01:44:02;;;;;;;1.80;1.70;;;14.30;59.50;;;;;;5024618;28;20125;-80
2024/01/17 01:46:28;;;;;;;1.85;1.75;;;14.30;59.50;;;;;;5018906;28;20136;-81
2024/01/17 01:48:53;;;;;;;1.90;1.80;;;14.30;59.50;;;;;;5018946;28;22418;-81
2024/01/17 01:51:19;;;;;;;2.10;1.95;;;14.30;59.50;;;;;;5016621;28;20061;-81
2024/01/17 01:53:47;;;;;;;1.80;1.70;;;14.30;59.50;;;;;;5018329;28;20100;-81
2024/01/17 01:56:14;;;;;;;1.65;1.55;;;14.30;59.60;;;;;;5023663;28;20046;-81
2024/01/17 01:58:40;;;;;;;1.75;1.65;;;14.30;59.60;;;;;;5023742;28;20080;-80
2024/01/17 02:01:06;;;;;;;1.50;1.40;;;14.30;59.50;;;;;;4989179;28;20499;-81
2024/01/17 02:03:31;;;;;;;1.52;1.42;;;14.20;59.70;;;;;;5018848;28;20038;-81
2024/01/17 02:05:57;;;;;;;1.58;1.48;;;14.20;59.50;;;;;;5004816;28;20038;-81
2024/01/17 02:08:23;;;;;;;1.60;1.50;;;14.20;59.60;;;;;;5012186;28;20045;-81
2024/01/17 02:10:48;;;;;;;1.40;1.30;;;14.20;59.80;;;;;;5020381;28;20037;-82
2024/01/17 02:13:14;;;;;;;1.85;1.75;;;14.20;59.60;;;;;;5006093;28;20041;-82
2024/01/17 02:15:40;;;;;;;1.50;1.40;;;14.20;59.70;;;;;;5006281;28;20044;-80
2024/01/17 02:18:05;;;;;;;1.58;1.48;;;14.20;59.60;;;;;;5020729;28;20304;-81
2024/01/17 02:20:31;;;;;;;1.20;1.10;;;14.20;59.80;;;;;;4987603;28;20038;-81
2024/01/17 02:22:57;;;;;;;1.50;1.40;;;14.20;60.10;;;;;;4982149;28;20053;-81
2024/01/17 02:25:22;;;;;;;1.42;1.30;;;14.20;60.20;;;;;;5022447;28;20037;-81
2024/01/17 02:27:48;;;;;;;1.38;1.27;;;14.20;60.30;;;;;;5020038;28;20125;-81
2024/01/17 02:30:17;;;;;;;1.25;1.17;;;14.20;60.30;;;;;;5004571;28;20041;-80
2024/01/17 02:32:43;;;;;;;1.40;1.40;;;14.20;60.30;;;;;;5019397;28;20132;-81
2024/01/17 02:35:08;;;;;;;1.30;1.30;;;14.20;60.30;;;;;;5001965;28;20041;-81
2024/01/17 02:37:34;;;;;;;1.50;1.40;;;14.20;60.80;;;;;;5009022;28;20037;-81
2024/01/17 02:39:59;;;;;;;1.10;1.10;;;14.20;60.00;;;;;;5015271;28;20403;-81
2024/01/17 02:42:25;;;;;;;1.50;1.40;;;14.20;60.10;;;;;;5026675;28;20030;-81
2024/01/17 02:44:50;;;;;;;1.30;1.30;;;14.20;60.10;;;;;;5017324;28;20132;-80
2024/01/17 02:47:16;;;;;;;1.20;1.20;;;14.20;60.00;;;;;;5024534;28;20041;-80
2024/01/17 02:49:42;;;;;;;1.13;1.13;;;14.20;60.00;;;;;;5031708;28;20503;-80
2024/01/17 02:52:07;;;;;;;1.00;1.00;;;14.20;60.00;;;;;;5003300;28;20034;-80
2024/01/17 02:54:33;;;;;;;1.52;1.42;;;14.20;60.00;;;;;;5018924;28;20057;-80
2024/01/17 02:56:58;;;;;;;1.02;1.02;;;14.20;60.80;;;;;;5023913;28;20044;-80
2024/01/17 02:59:24;;;;;;;1.27;1.25;;;14.20;60.20;;;;;;5026286;28;20060;-80
2024/01/17 03:01:50;;;;;;;0.80;0.80;;;14.20;60.10;;;;;;5026625;28;20470;-80
2024/01/17 03:04:16;;;;;;;1.00;1.00;;;14.20;60.00;;;;;;5009742;28;20152;-80
2024/01/17 03:06:42;;;;;;;0.90;0.90;;;14.20;60.10;;;;;;5007072;28;20063;-80
2024/01/17 03:09:10;;;;;;;1.15;1.15;;;14.20;60.20;;;;;;5002669;28;20056;-81
2024/01/17 03:11:36;;;;;;;1.10;1.10;;;14.10;60.00;;;;;;5013051;28;20053;-81
2024/01/17 03:14:03;;;;;;;1.38;1.27;;;14.20;60.10;;;;;;5026886;28;20049;-80
2024/01/17 03:16:28;;;;;;;0.95;0.95;;;14.10;60.00;;;;;;5022855;28;20069;-80
2024/01/17 03:18:54;;;;;;;0.90;0.90;;;14.10;60.00;;;;;;5024225;28;20499;-80
2024/01/17 03:21:19;;;;;;;1.17;1.17;;;14.10;60.10;;;;;;5024103;28;20045;-80
2024/01/17 03:23:45;;;;;;;1.10;1.10;;;14.20;60.10;;;;;;5023156;28;20121;-80
2024/01/17 03:26:10;;;;;;;0.88;0.88;;;14.10;60.00;;;;;;5025153;28;20069;-80
2024/01/17 03:28:36;;;;;;;0.90;0.90;;;14.10;60.10;;;;;;5025164;28;20124;-81
2024/01/17 03:31:02;;;;;;;0.63;0.63;;;14.20;60.30;;;;;;5008161;28;20056;-80
2024/01/17 03:33:28;;;;;;;0.77;0.77;;;14.10;60.20;;;;;;5022684;28;20037;-80
2024/01/17 03:35:53;;;;;;;0.82;0.82;;;14.10;60.20;;;;;;5021949;28;20041;-80
2024/01/17 03:38:21;;;;;;;1.00;1.00;;;14.10;60.40;;;;;;5006626;28;20119;-80
2024/01/17 03:40:46;;;;;;;1.08;0.90;;;14.10;60.30;;;;;;5022684;28;20069;-80
2024/01/17 03:43:12;;;;;;;0.88;0.88;;;14.10;60.50;;;;;;5004054;28;20049;-80
2024/01/17 03:45:38;;;;;;;0.80;0.80;;;14.10;60.50;;;;;;4996988;28;20042;-80
2024/01/17 03:48:04;;;;;;;1.05;1.05;;;14.10;60.40;;;;;;4989854;28;20036;-80
2024/01/17 03:50:30;;;;;;;0.95;0.95;;;14.10;60.40;;;;;;5017355;28;20097;-80
2024/01/17 03:52:56;;;;;;;0.77;0.77;;;14.10;60.50;;;;;;5022888;28;20029;-80
2024/01/17 03:55:21;;;;;;;0.80;0.80;;;14.10;60.40;;;;;;5023151;28;20053;-80
2024/01/17 03:57:47;;;;;;;0.80;0.80;;;14.10;60.80;;;;;;5020733;28;20507;-80
2024/01/17 04:00:14;;;;;;;0.90;0.90;;;14.10;60.70;;;;;;5023966;28;20492;-80
2024/01/17 04:02:39;;;;;;;2.67;0.82;;;14.10;60.80;;;;;;4991857;28;20086;-80
2024/01/17 04:05:05;;;;;;;0.80;0.80;;;14.10;60.70;;;;;;4988643;28;20528;-80
2024/01/17 04:07:31;;;;;;;0.70;0.70;;;14.10;60.70;;;;;;5004802;28;20038;-80
2024/01/17 04:09:56;;;;;;;0.82;0.73;;;14.10;60.70;;;;;;5011490;28;20037;-80
2024/01/17 04:12:22;;;;;;;0.77;0.75;;;14.00;61.30;;;;;;5024555;28;20084;-80
2024/01/17 04:14:48;;;;;;;0.73;0.73;;;14.10;60.80;;;;;;5019800;28;20038;-80
2024/01/17 04:17:13;;;;;;;0.70;0.70;;;14.10;60.80;;;;;;5022021;28;20069;-80
2024/01/17 04:19:40;;;;;;;0.70;0.70;;;14.10;60.60;;;;;;5024985;28;20050;-80
2024/01/17 04:22:05;;;;;;;0.80;0.80;;;14.10;60.50;;;;;;5021404;28;20050;-80
2024/01/17 04:24:31;;;;;;;0.60;0.60;;;14.00;60.70;;;;;;5018966;28;20452;-80
2024/01/17 04:26:56;;;;;;;0.60;0.60;;;14.10;61.10;;;;;;5005717;28;20052;-80
2024/01/17 04:29:23;;;;;;;0.70;0.70;;;14.10;60.90;;;;;;5021677;28;20059;-80
2024/01/17 04:31:48;;;;;;;0.80;0.80;;;14.10;60.90;;;;;;5023372;28;20046;-80
2024/01/17 04:34:14;;;;;;;0.60;0.60;;;14.10;61.10;;;;;;5021468;28;20048;-80
2024/01/17 04:36:40;;;;;;;0.68;0.68;;;14.10;61.00;;;;;;5021094;28;20037;-80
2024/01/17 04:39:05;;;;;;;0.57;0.57;;;14.10;61.10;;;;;;5007314;28;20450;-80
2024/01/17 04:41:31;;;;;;;0.63;0.63;;;14.00;60.80;;;;;;5022821;28;20463;-80
2024/01/17 04:43:57;;;;;;;0.60;0.60;;;14.10;61.00;;;;;;5023624;28;20042;-80
2024/01/17 04:46:23;;;;;;;0.70;0.70;;;14.00;60.90;;;;;;5024288;28;20068;-80
2024/01/17 04:48:48;;;;;;;0.60;0.60;;;14.10;61.20;;;;;;5020601;28;20288;-80
2024/01/17 04:51:15;;;;;;;0.70;0.70;;;14.00;60.90;;;;;;5003166;28;20052;-81
2024/01/17 04:53:43;;;;;;;0.60;0.60;;;14.00;60.90;;;;;;5019579;28;20038;-79
2024/01/17 04:56:10;;;;;;;0.50;0.50;;;14.00;61.20;;;;;;5019733;28;20632;-80
2024/01/17 04:58:36;;;;;;;0.55;0.55;;;14.00;61.00;;;;;;5021925;28;20198;-80
2024/01/17 05:01:03;;;;;;;0.38;0.38;;;14.00;61.80;;;;;;5006090;28;20483;-80
2024/01/17 05:03:28;;;;;;;0.60;0.60;;;14.00;61.00;;;;;;5011639;28;20034;-80
2024/01/17 05:05:54;;;;;;;0.50;0.50;;;14.00;60.90;;;;;;4999543;28;20042;-80
2024/01/17 05:08:20;;;;;;;0.60;0.60;;;14.00;60.80;;;;;;5035328;28;20496;-80
2024/01/17 05:10:45;;;;;;;0.50;0.50;;;14.00;60.80;;;;;;5021080;28;20053;-80
2024/01/17 05:13:12;;;;;;;0.50;0.50;;;14.00;60.90;;;;;;5001068;28;20041;-81
2024/01/17 05:15:37;;;;;;;0.70;0.70;;;14.00;60.90;;;;;;5025422;28;20041;-81
2024/01/17 05:18:04;;;;;;;2.35;0.75;;;14.00;61.30;;;;;;5002301;28;20045;-81
2024/01/17 05:20:30;;;;;;;0.60;0.60;;;14.00;61.00;;;;;;5020204;28;20029;-81
2024/01/17 05:22:55;;;;;;;0.60;0.60;;;14.00;61.20;;;;;;5019083;28;20132;-81
2024/01/17 05:25:21;;;;;;;0.60;0.60;;;14.00;61.30;;;;;;5020269;28;20037;-81
2024/01/17 05:27:51;;;;;;;0.47;0.47;;;14.00;61.10;;;;;;5016024;28;20137;-80
2024/01/17 05:30:20;;;;;;;0.60;0.60;;;14.00;61.10;;;;;;5020760;28;20049;-81
2024/01/17 05:32:46;;;;;;;0.55;0.55;;;14.00;61.80;;;;;;5013085;28;20528;-81
2024/01/17 05:35:12;;;;;;;0.50;0.50;;;14.00;61.40;;;;;;5021290;28;20041;-80
2024/01/17 05:37:40;;;;;;;0.50;0.50;;;14.00;61.40;;;;;;5023471;28;20045;-81
2024/01/17 05:40:08;;;;;;;0.77;0.60;;;14.00;61.10;;;;;;5020699;28;20041;-80
2024/01/17 05:42:34;;;;;;;0.60;0.50;;;14.00;61.00;;;;;;5020815;28;20033;-81
2024/01/17 05:44:59;;;;;;;0.50;0.50;;;14.00;61.00;;;;;;5013614;28;20100;-81
2024/01/17 05:47:25;;;;;;;0.50;0.50;;;14.00;61.10;;;;;;4998020;28;20054;-81
2024/01/17 05:49:51;;;;;;;0.40;0.40;;;14.00;61.50;;;;;;5003504;28;20081;-80
2024/01/17 05:52:16;;;;;;;0.60;0.60;;;14.00;61.50;;;;;;5013260;28;20037;-82
2024/01/17 05:54:42;;;;;;;0.60;0.60;;;14.00;61.30;;;;;;5023922;28;20557;-82
2024/01/17 05:57:08;;;;;;;0.40;0.40;;;14.00;62.20;;;;;;4992154;28;20467;-82
2024/01/17 05:59:34;;;;;;;0.50;0.50;;;14.00;61.20;;;;;;5014218;28;20515;-82
2024/01/17 06:01:59;;;;;;;0.50;0.50;;;14.00;61.30;;;;;;5018336;28;20046;-81
2024/01/17 06:04:25;;;;;;;0.30;0.30;;;14.00;61.40;;;;;;5024634;28;20525;-81
2024/01/17 06:06:50;;;;;;;0.43;0.43;;;14.00;61.30;;;;;;5023429;28;20033;-79
2024/01/17 06:09:16;;;;;;;0.40;0.40;;;14.00;61.40;;;;;;5025541;28;20084;-80
2024/01/17 06:11:42;;;;;;;0.30;0.30;;;14.00;61.30;;;;;;5019025;28;20041;-80
2024/01/17 06:14:08;;;;;;;0.38;0.38;;;14.00;61.50;;;;;;5024997;28;20025;-80
2024/01/17 06:16:33;;;;;;;0.40;0.30;;;13.90;61.50;;;;;;5022822;28;21639;-80
2024/01/17 06:18:59;;;;;;;0.40;0.40;;;14.00;61.30;;;;;;5020834;28;20124;-80
2024/01/17 06:21:25;;;;;;;0.28;0.28;;;14.00;61.40;;;;;;5022194;28;20061;-80
2024/01/17 06:23:51;;;;;;;0.50;0.50;;;14.00;61.50;;;;;;5006813;28;20038;-81
2024/01/17 06:26:17;;;;;;;0.60;0.45;;;14.00;61.30;;;;;;5003811;28;20035;-81
2024/01/17 06:28:42;;;;;;;2.08;0.60;;;14.00;61.70;;;;;;5022662;28;20091;-78
2024/01/17 06:31:08;;;;;;;14.75;6.97;;;14.00;61.50;;;;;;5023324;28;20138;-80
2024/01/17 06:33:34;;;;;;;0.40;0.40;;;14.00;61.30;;;;;;5023013;28;20069;-80
2024/01/17 06:35:59;;;;;;;0.40;0.40;;;14.00;61.30;;;;;;4671681;28;10000678;-79
2024/01/17 06:38:25;;;;;;;0.40;0.40;;;14.10;61.50;;;;;;5019010;28;20106;-79
2024/01/17 06:40:50;;;;;;;0.55;0.30;;;14.00;61.40;;;;;;5017405;28;20506;-79
2024/01/17 06:43:16;;;;;;;0.30;0.30;;;14.10;61.50;;;;;;5019116;28;20058;-79
2024/01/17 06:45:42;;;;;;;0.60;0.57;;;14.00;61.50;;;;;;5021815;28;20052;-79
2024/01/17 06:48:08;;;;;;;0.30;0.30;;;14.00;61.50;;;;;;5018459;28;20080;-79
2024/01/17 06:50:33;;;;;;;0.82;0.30;;;14.00;61.40;;;;;;5036223;28;20037;-78
2024/01/17 06:52:59;;;;;;;1.17;0.40;;;14.00;61.50;;;;;;5018328;28;20045;-78
2024/01/17 06:55:25;;;;;;;0.40;0.40;;;14.00;61.50;;;;;;5020832;28;20211;-78
2024/01/17 06:57:51;;;;;;;0.40;0.40;;;14.00;61.40;;;;;;5022017;28;20499;-79
2024/01/17 07:00:17;;;;;;;0.40;0.40;;;14.00;62.30;;;;;;5003064;28;20046;-79
2024/01/17 07:02:43;;;;;;;0.40;0.40;;;14.00;61.40;;;;;;5023513;28;20045;-79
2024/01/17 07:05:09;;;;;;;0.38;0.38;;;14.10;61.50;;;;;;5005816;28;20049;-78
2024/01/17 07:07:34;;;;;;;0.30;0.30;;;14.00;62.20;;;;;;5018465;28;20565;-78
2024/01/17 07:10:00;;;;;;;0.40;0.35;;;14.10;61.50;;;;;;5021228;28;20049;-78
2024/01/17 07:12:25;;;;;;;0.50;0.40;;;14.10;61.50;;;;;;4991113;28;20066;-78
2024/01/17 07:14:54;;;;;;;0.40;0.40;;;14.10;61.40;;;;;;5003123;28;20711;-78
2024/01/17 07:17:19;;;;;;;0.35;0.35;;;14.10;61.40;;;;;;4983153;28;20052;-78
2024/01/17 07:19:45;;;;;;;0.77;0.30;;;14.10;61.40;;;;;;5035005;28;20045;-79
2024/01/17 07:22:13;;;;;;;0.40;0.40;;;14.10;61.30;;;;;;4979454;28;20038;-79
2024/01/17 07:24:38;;;;;;;0.40;0.40;;;14.10;61.30;;;;;;5005140;28;20056;-79
2024/01/17 07:27:04;;;;;;;2.83;0.30;;;14.10;61.40;;;;;;5049655;28;20472;-79
2024/01/17 07:29:30;;;;;;;0.40;0.30;;;14.10;61.50;;;;;;5024281;28;20042;-78
2024/01/17 07:31:56;;;;;;;0.55;0.30;;;14.10;61.80;;;;;;5023602;28;20046;-78
2024/01/17 07:34:22;;;;;;;0.30;0.30;;;14.20;61.50;;;;;;5007072;28;20512;-78
2024/01/17 07:36:48;;;;;;;0.40;0.40;;;14.10;61.50;;;;;;4998422;28;20038;-78
2024/01/17 07:39:18;;;;;;;0.30;0.30;;;14.10;61.90;;;;;;5023823;28;20214;-78
2024/01/17 07:41:44;;;;;;;0.63;0.50;;;14.10;61.90;;;;;;5024463;28;20033;-78
2024/01/17 07:44:10;;;;;;;0.20;0.20;;;14.10;62.00;;;;;;5023806;28;20551;-78
2024/01/17 07:46:36;;;;;;;0.38;0.38;;;14.10;62.00;;;;;;5026163;28;20037;-78
2024/01/17 07:49:02;;;;;;;0.30;0.30;;;14.10;62.00;;;;;;5019207;28;20033;-78
2024/01/17 07:51:27;;;;;;;0.20;0.20;;;14.00;62.00;;;;;;5023718;28;20414;-78
2024/01/17 07:53:53;;;;;;;0.30;0.30;;;14.00;62.00;;;;;;5038453;28;20076;-78
2024/01/17 07:56:18;;;;;;;0.40;0.40;;;14.00;62.00;;;;;;5038381;28;20034;-78
2024/01/17 07:58:44;;;;;;;0.30;0.30;;;14.00;62.00;;;;;;5016933;28;20022;-78
2024/01/17 08:01:10;;;;;;;0.30;0.30;;;14.00;62.00;;;;;;5023686;28;20049;-78
2024/01/17 08:03:35;;;;;;;0.30;0.30;;;14.00;62.00;;;;;;5026183;28;20464;-78
2024/01/17 08:06:01;;;;;;;0.35;0.35;;;14.00;62.10;;;;;;5022295;28;20069;-78
2024/01/17 08:08:26;;;;;;;0.20;0.20;;;14.00;62.10;;;;;;5024835;28;20123;-78
2024/01/17 08:10:52;;;;;;;0.40;0.40;;;14.00;62.10;;;;;;5010594;28;20045;-78
2024/01/17 08:13:17;;;;;;;0.30;0.30;;;14.00;62.10;;;;;;5008242;28;20518;-78
2024/01/17 08:15:43;;;;;;;0.40;0.30;;;14.00;61.90;;;;;;5006063;28;20089;-78
2024/01/17 08:18:08;;;;;;;0.40;0.40;;;14.00;62.10;;;;;;5003911;28;20113;-78
2024/01/17 08:20:34;;;;;;;0.20;0.15;;;14.00;62.10;;;;;;5013368;28;20129;-78
2024/01/17 08:23:00;;;;;;;0.65;0.30;;;14.00;62.20;;;;;;5023723;28;20084;-78
2024/01/17 08:25:26;;;;;;;0.32;0.30;;;14.00;62.10;;;;;;5020454;28;20053;-78
2024/01/17 08:27:54;;;;;;;0.47;0.47;;;14.00;62.10;;;;;;5023365;28;20037;-78
2024/01/17 08:30:19;;;;;;;1.02;0.30;;;14.00;62.10;;;;;;5007787;28;20050;-78
2024/01/17 08:32:45;;;;;;;0.20;0.20;;;14.00;62.20;;;;;;5025305;28;20037;-78
2024/01/17 08:35:12;;;;;;;0.20;0.20;;;14.00;62.10;;;;;;5023751;28;20049;-78
2024/01/17 08:37:37;;;;;;;0.20;0.20;;;14.00;62.20;;;;;;5008591;28;20042;-78
2024/01/17 08:40:03;;;;;;;3.25;0.20;;;14.00;63.10;;;;;;5007481;28;20044;-78
2024/01/17 08:42:29;;;;;;;0.35;0.35;;;14.00;62.30;;;;;;4994330;28;20180;-78
2024/01/17 08:44:54;;;;;;;0.28;0.28;;;14.00;62.40;;;;;;5011229;28;20138;-78
2024/01/17 08:47:20;;;;;;;1.02;0.20;;;14.00;62.30;;;;;;5019789;28;20076;-78
2024/01/17 08:49:45;;;;;;;0.28;0.20;;;14.00;62.20;;;;;;5056579;28;20045;-78
2024/01/17 08:52:11;;;;;;;0.43;0.40;;;14.00;62.20;;;;;;4996533;28;20149;-78
2024/01/17 08:54:36;;;;;;;0.30;0.30;;;14.00;62.30;;;;;;5024937;28;20034;-78
2024/01/17 08:57:02;;;;;;;0.32;0.30;;;14.00;62.20;;;;;;5023437;28;20103;-78
2024/01/17 08:59:28;;;;;;;0.30;0.30;;;14.00;62.10;;;;;;5006711;28;20569;-78
2024/01/17 09:01:56;;;;;;;0.77;0.30;;;14.00;62.80;;;;;;5024755;28;20037;-78
2024/01/17 09:04:23;;;;;;;0.15;0.15;;;14.00;62.90;;;;;;4991426;28;20041;-78
2024/01/17 09:06:49;;;;;;;0.22;0.22;;;14.00;62.10;;;;;;5005212;28;20044;-78
2024/01/17 09:09:15;;;;;;;0.82;0.20;;;14.00;62.10;;;;;;4995883;28;20562;-78
2024/01/17 09:11:41;;;;;;;0.93;0.30;;;14.00;62.10;;;;;;5023245;28;20048;-78
2024/01/17 09:14:06;;;;;;;0.10;0.10;;;14.00;62.10;;;;;;5022413;28;20441;-78
2024/01/17 09:16:33;;;;;;;1.35;0.30;;;14.00;62.10;;;;;;5008475;28;20115;-78
2024/01/17 09:18:59;;;;;;;0.20;0.20;;;14.00;62.10;;;;;;5021044;28;20100;-78
2024/01/17 09:21:25;;;;;;;0.20;0.20;;;14.00;62.10;;;;;;5020245;28;20071;-78
2024/01/17 09:23:50;;;;;;;0.20;0.20;;;14.00;62.10;;;;;;5023429;28;20046;-78
2024/01/17 09:26:16;;;;;;;0.20;0.20;;;14.00;62.10;;;;;;5023308;28;20139;-78
2024/01/17 09:28:42;;;;;;;0.20;0.20;;;14.00;62.10;;;;;;5025295;28;20044;-78
2024/01/17 09:31:08;;;;;;;0.40;0.30;;;14.00;62.10;;;;;;5020970;28;20072;-78
2024/01/17 09:33:35;;;;;;;0.20;0.20;;;14.00;62.20;;;;;;5023732;28;20162;-78
2024/01/17 09:36:00;;;;;;;0.20;0.20;;;14.00;62.10;;;;;;5021872;28;20128;-78
2024/01/17 09:38:26;;;;;;;0.43;0.20;;;14.00;62.10;;;;;;5020964;28;20125;-78
2024/01/17 09:40:51;;;;;;;0.20;0.20;;;14.00;62.10;;;;;;5022525;28;20049;-78
2024/01/17 09:43:17;;;;;;;0.20;0.20;;;13.90;62.80;;;;;;5026114;28;20038;-78
2024/01/17 09:45:43;;;;;;;0.10;0.10;;;13.90;62.10;;;;;;5026418;28;20050;-78
2024/01/17 09:48:10;;;;;;;0.35;0.20;;;14.00;62.90;;;;;;5025393;28;20053;-78
2024/01/17 09:50:36;;;;;;;0.20;0.20;;;13.90;62.10;;;;;;5024371;28;20073;-78
2024/01/17 09:53:01;;;;;;;0.17;0.17;;;13.90;62.90;;;;;;5029009;28;20061;-78
2024/01/17 09:55:27;;;;;;;0.25;0.20;;;13.90;62.10;;;;;;5008678;28;20046;-78
2024/01/17 09:57:56;;;;;;;0.50;0.50;;;14.00;62.10;;;;;;5020880;28;20049;-78
2024/01/17 10:00:21;;;;;;;0.20;0.20;;;13.90;62.10;;;;;;5007460;28;20093;-78
2024/01/17 10:02:47;;;;;;;0.30;0.30;;;13.90;62.10;;;;;;5044676;28;20056;-78
2024/01/17 10:05:13;;;;;;;0.20;0.20;;;13.90;62.10;;;;;;5041298;28;20080;-78
2024/01/17 10:07:39;;;;;;;0.20;0.20;;;13.90;62.00;;;;;;5003598;28;20065;-78
2024/01/17 10:10:08;;;;;;;0.15;0.15;;;14.00;62.10;;;;;;5027417;28;20158;-78
2024/01/17 10:12:34;;;;;;;0.03;0.03;;;13.90;62.10;;;;;;5025188;28;20091;-78
2024/01/17 10:15:06;;;;;;;0.30;0.25;;;13.90;62.20;;;;;;5008202;28;20033;-78
2024/01/17 10:17:34;;;;;;;0.20;0.20;;;13.90;62.20;;;;;;5056978;28;20042;-78
2024/01/17 10:20:00;;;;;;;0.10;0.10;;;13.90;62.10;;;;;;5027405;28;20061;-78
2024/01/17 10:22:26;;;;;;;0.13;0.13;;;13.90;62.20;;;;;;5008487;28;20377;-78
2024/01/17 10:24:52;;;;;;;0.20;0.20;;;13.90;63.00;;;;;;5022037;28;20053;-78
2024/01/17 10:27:18;;;;;;;0.20;0.20;;;13.90;62.10;;;;;;4994308;28;20060;-78
2024/01/17 10:29:43;;;;;;;0.10;0.10;;;13.90;62.20;;;;;;5026264;28;20046;-78
2024/01/17 10:32:09;;;;;;;0.20;0.20;;;13.90;62.10;;;;;;5025947;28;20117;-78
2024/01/17 10:34:36;;;;;;;0.32;0.20;;;14.00;62.20;;;;;;5020928;28;20041;-78
2024/01/17 10:37:05;;;;;;;0.20;0.20;;;13.90;62.30;;;;;;5012803;28;20065;-78
2024/01/17 10:39:31;;;;;;;0.20;0.20;;;13.90;62.10;;;;;;4991861;28;20515;-78
2024/01/17 10:41:58;;;;;;;0.20;0.20;;;13.90;62.20;;;;;;5022947;28;20107;-78
2024/01/17 10:44:28;;;;;;;0.63;0.20;;;14.00;62.30;;;;;;4993426;28;21789;-78
2024/01/17 10:46:54;;;;;;;0.10;0.10;;;13.90;62.20;;;;;;5006171;28;20045;-78
2024/01/17 10:49:20;;;;;;;0.10;0.10;;;13.90;62.20;;;;;;4990689;28;20508;-78
2024/01/17 10:52:02;;;;;;;0.15;0.15;;;13.90;62.20;;;;;;4997030;28;20589;-78
2024/01/17 10:54:27;;;;;;;0.30;0.30;;;13.90;62.30;;;;;;5021533;28;20128;-78
2024/01/17 10:56:54;;;;;;;0.20;0.20;;;13.90;62.30;;;;;;5002539;28;20132;-78
2024/01/17 10:59:20;;;;;;;0.20;0.20;;;13.90;62.20;;;;;;4990985;28;20064;-78
2024/01/17 11:01:47;;;;;;;0.40;0.20;;;13.90;62.20;;;;;;5021658;28;20087;-78
2024/01/17 11:04:23;;;;;;;0.20;0.17;;;13.90;62.30;;;;;;4992208;28;20041;-78
2024/01/17 11:06:49;;;;;;;0.20;0.20;;;13.90;62.30;;;;;;5003170;28;20088;-78
2024/01/17 11:09:14;;;;;;;0.20;0.20;;;13.90;62.30;;;;;;5019633;28;20507;-77
2024/01/17 11:11:40;;;;;;;0.20;0.20;;;13.90;62.30;;;;;;5019541;28;20038;-78
2024/01/17 11:14:06;;;;;;;0.20;0.20;;;13.90;62.30;;;;;;4986984;28;20573;-78
2024/01/17 11:16:33;;;;;;;0.20;0.20;;;13.90;63.10;;;;;;5041081;28;20053;-78
2024/01/17 11:18:59;;;;;;;0.13;0.13;;;13.90;62.30;;;;;;5008795;28;20065;-78
2024/01/17 11:21:25;;;;;;;0.22;0.22;;;13.90;62.30;;;;;;5054044;28;20102;-78
2024/01/17 11:23:56;;;;;;;0.20;0.20;;;13.90;62.30;;;;;;4986420;28;20520;-77
2024/01/17 11:26:32;;;;;;;0.32;0.22;;;13.90;62.40;;;;;;4990564;28;20065;-77
2024/01/17 11:29:05;;;;;;;0.20;0.20;;;13.90;62.30;;;;;;5025118;28;20454;-78
2024/01/17 11:31:48;;;;;;;0.30;0.30;;;13.90;62.30;;;;;;5024041;28;20053;-78
2024/01/17 11:34:14;;;;;;;0.15;0.10;;;13.90;62.30;;;;;;5008880;28;20045;-78
2024/01/17 11:36:41;;;;;;;0.20;0.10;;;13.90;62.40;;;;;;5024803;28;20042;-78
2024/01/17 11:39:08;;;;;;;0.05;0.05;;;13.90;62.30;;;;;;5024730;28;20120;-78
2024/01/17 11:41:36;;;;;;;0.10;0.10;;;13.90;62.30;;;;;;5020753;28;20046;-78
2024/01/17 11:44:02;;;;;;;0.10;0.10;;;13.90;62.30;;;;;;5056721;28;20037;-78
2024/01/17 11:46:27;;;;;;;1.10;0.20;;;13.90;62.30;;;;;;4998895;28;20384;-78
2024/01/17 11:48:53;;;;;;;0.68;0.30;;;13.90;62.30;;;;;;5003793;28;20048;-78
2024/01/17 11:51:21;;;;;;;0.20;0.20;;;13.90;62.30;;;;;;4997545;28;20054;-78
2024/01/17 11:53:51;;;;;;;0.20;0.20;;;14.00;62.30;;;;;;5023872;28;20099;-78
2024/01/17 11:56:20;;;;;;;0.20;0.20;;;13.90;62.20;;;;;;5026214;28;20050;-77
2024/01/17 11:58:46;;;;;;;0.15;0.10;;;13.90;62.20;;;;;;4995586;28;20057;-78
2024/01/17 12:01:22;;;;;;;0.10;0.10;;;13.90;62.20;;;;;;5022476;28;20053;-78
2024/01/17 12:03:47;;;;;;;0.35;0.20;;;13.90;62.30;;;;;;5022252;28;20045;-77
2024/01/17 12:06:13;;;;;;;0.10;0.10;;;13.90;62.30;;;;;;5004021;28;20426;-78
2024/01/17 12:08:39;;;;;;;0.10;0.10;;;13.90;62.30;;;;;;5024957;28;20079;-78
2024/01/17 12:11:06;;;;;;;0.10;0.10;;;14.00;62.20;;;;;;5009738;28;20456;-78
2024/01/17 12:13:32;;;;;;;0.10;0.10;;;14.00;62.40;;;;;;5015250;28;20056;-78
2024/01/17 12:15:58;;;;;;;0.13;0.10;;;14.00;62.40;;;;;;4977960;28;20408;-78
2024/01/17 12:18:24;;;;;;;0.20;0.20;;;14.00;62.40;;;;;;4999721;28;20046;-78
2024/01/17 12:20:50;;;;;;;0.13;0.10;;;14.00;62.40;;;;;;5014925;28;20100;-78
2024/01/17 12:23:22;;;;;;;0.10;0.10;;;14.00;62.40;;;;;;5022814;28;20581;-78
2024/01/17 12:25:48;;;;;;;0.10;0.10;;;14.00;62.20;;;;;;5024772;28;20049;-78
2024/01/17 12:28:18;;;;;;;0.28;0.25;;;14.00;62.30;;;;;;5019239;28;20045;-78
2024/01/17 12:30:55;;;;;;;0.10;0.10;;;14.00;62.30;;;;;;4992715;28;20053;-78
2024/01/17 12:33:20;;;;;;;0.10;0.10;;;14.00;62.20;;;;;;5005248;28;20050;-78
2024/01/17 12:35:46;;;;;;;0.15;0.10;;;14.00;62.20;;;;;;5020148;28;20045;-78
2024/01/17 12:38:11;;;;;;;0.17;0.17;;;14.00;62.40;;;;;;4992095;28;20050;-78
2024/01/17 12:40:37;;;;;;;0.13;0.13;;;14.00;62.30;;;;;;5003947;28;20647;-78